sensor_id;sensor_type;location;lat;lon;timestamp;temperature;humidity
45409;DHT22;31162;51.076;3.784;2022-10-16T00:00:30;14.60;99.90
45409;DHT22;31162;51.076;3.784;2022-10-16T00:02:55;14.60;99.90
45409;DHT22;31162;51.076;3.784;2022-10-16T00:05:21;14.50;99.90
45409;DHT22;31162;51.076;3.784;2022-10-16T00:07:47;14.40;99.90
45409;DHT22;31162;51.076;3.784;2022-10-16T00:10:12;14.40;99.90
45409;DHT22;31162;51.076;3.784;2022-10-16T00:12:38;14.40;99.90
45409;DHT22;31162;51.076;3.784;2022-10-16T00:15:04;14.40;99.90
45409;DHT22;31162;51.076;3.784;2022-10-16T00:17:31;14.40;99.90
45409;DHT22;31162;51.076;3.784;2022-10-16T00:19:57;14.40;99.90
45409;DHT22;31162;51.076;3.784;2022-10-16T00:22:23;14.30;99.90
45409;DHT22;31162;51.076;3.784;2022-10-16T00:24:48;14.30;99.90
45409;DHT22;31162;51.076;3.784;2022-10-16T00:27:14;14.30;99.90
45409;DHT22;31162;51.076;3.784;2022-10-16T00:29:39;14.20;99.90
45409;DHT22;31162;51.076;3.784;2022-10-16T00:32:05;14.20;99.90
45409;DHT22;31162;51.076;3.784;2022-10-16T00:34:31;14.10;99.90
45409;DHT22;31162;51.076;3.784;2022-10-16T00:36:56;14.20;99.90
45409;DHT22;31162;51.076;3.784;2022-10-16T00:39:22;14.00;99.90
45409;DHT22;31162;51.076;3.784;2022-10-16T00:41:48;13.90;99.90
45409;DHT22;31162;51.076;3.784;2022-10-16T00:44:43;13.90;99.90
45409;DHT22;31162;51.076;3.784;2022-10-16T00:47:21;13.90;99.90
45409;DHT22;31162;51.076;3.784;2022-10-16T00:49:50;14.00;99.90
45409;DHT22;31162;51.076;3.784;2022-10-16T00:52:17;13.90;99.90
45409;DHT22;31162;51.076;3.784;2022-10-16T00:54:43;13.90;99.90
45409;DHT22;31162;51.076;3.784;2022-10-16T00:57:11;13.80;99.90
45409;DHT22;31162;51.076;3.784;2022-10-16T00:59:39;13.70;99.90
45409;DHT22;31162;51.076;3.784;2022-10-16T01:02:08;13.80;99.90
45409;DHT22;31162;51.076;3.784;2022-10-16T01:04:40;13.80;99.90
45409;DHT22;31162;51.076;3.784;2022-10-16T01:10:03;13.90;99.90
45409;DHT22;31162;51.076;3.784;2022-10-16T01:17:43;14.00;99.90
45409;DHT22;31162;51.076;3.784;2022-10-16T01:22:43;13.90;99.90
45409;DHT22;31162;51.076;3.784;2022-10-16T01:28:15;13.80;99.90
45409;DHT22;31162;51.076;3.784;2022-10-16T01:30:44;13.90;99.90
45409;DHT22;31162;51.076;3.784;2022-10-16T01:33:28;13.90;99.90
45409;DHT22;31162;51.076;3.784;2022-10-16T01:35:59;13.90;99.90
45409;DHT22;31162;51.076;3.784;2022-10-16T01:38:33;13.80;99.90
45409;DHT22;31162;51.076;3.784;2022-10-16T01:41:24;13.80;99.90
45409;DHT22;31162;51.076;3.784;2022-10-16T01:46:28;13.80;99.90
45409;DHT22;31162;51.076;3.784;2022-10-16T01:48:56;13.80;99.90
45409;DHT22;31162;51.076;3.784;2022-10-16T01:51:23;13.80;99.90
45409;DHT22;31162;51.076;3.784;2022-10-16T01:53:53;13.80;99.90
45409;DHT22;31162;51.076;3.784;2022-10-16T01:56:21;13.90;99.90
45409;DHT22;31162;51.076;3.784;2022-10-16T01:59:07;13.80;99.90
45409;DHT22;31162;51.076;3.784;2022-10-16T02:01:37;13.80;99.90
45409;DHT22;31162;51.076;3.784;2022-10-16T02:04:09;13.90;99.90
45409;DHT22;31162;51.076;3.784;2022-10-16T02:06:38;13.90;99.90
45409;DHT22;31162;51.076;3.784;2022-10-16T02:09:03;13.90;99.90
45409;DHT22;31162;51.076;3.784;2022-10-16T02:11:29;13.80;99.90
45409;DHT22;31162;51.076;3.784;2022-10-16T02:14:05;13.80;99.90
45409;DHT22;31162;51.076;3.784;2022-10-16T02:16:40;13.70;99.90
45409;DHT22;31162;51.076;3.784;2022-10-16T02:19:07;13.80;99.90
45409;DHT22;31162;51.076;3.784;2022-10-16T02:21:44;13.80;99.90
45409;DHT22;31162;51.076;3.784;2022-10-16T02:24:27;13.80;99.90
45409;DHT22;31162;51.076;3.784;2022-10-16T02:29:41;13.90;99.90
45409;DHT22;31162;51.076;3.784;2022-10-16T02:32:11;13.90;99.90
45409;DHT22;31162;51.076;3.784;2022-10-16T02:34:38;13.80;99.90
45409;DHT22;31162;51.076;3.784;2022-10-16T02:37:05;13.80;99.90
45409;DHT22;31162;51.076;3.784;2022-10-16T02:39:32;13.80;99.90
45409;DHT22;31162;51.076;3.784;2022-10-16T02:41:59;13.80;99.90
45409;DHT22;31162;51.076;3.784;2022-10-16T02:44:24;13.90;99.90
45409;DHT22;31162;51.076;3.784;2022-10-16T02:46:50;13.90;99.90
45409;DHT22;31162;51.076;3.784;2022-10-16T02:49:16;13.80;99.90
45409;DHT22;31162;51.076;3.784;2022-10-16T02:51:43;13.80;99.90
45409;DHT22;31162;51.076;3.784;2022-10-16T02:54:08;13.80;99.90
45409;DHT22;31162;51.076;3.784;2022-10-16T02:56:34;13.90;99.90
45409;DHT22;31162;51.076;3.784;2022-10-16T02:59:00;13.90;99.90
45409;DHT22;31162;51.076;3.784;2022-10-16T03:01:25;13.80;99.90
45409;DHT22;31162;51.076;3.784;2022-10-16T03:03:51;13.90;99.90
45409;DHT22;31162;51.076;3.784;2022-10-16T03:06:17;13.80;99.90
45409;DHT22;31162;51.076;3.784;2022-10-16T03:08:42;13.80;99.90
45409;DHT22;31162;51.076;3.784;2022-10-16T03:11:08;13.80;99.90
45409;DHT22;31162;51.076;3.784;2022-10-16T03:13:34;13.80;99.90
45409;DHT22;31162;51.076;3.784;2022-10-16T03:15:59;13.90;99.90
45409;DHT22;31162;51.076;3.784;2022-10-16T03:18:25;13.90;99.90
45409;DHT22;31162;51.076;3.784;2022-10-16T03:20:51;14.00;99.90
45409;DHT22;31162;51.076;3.784;2022-10-16T03:23:16;13.90;99.90
45409;DHT22;31162;51.076;3.784;2022-10-16T03:25:42;13.80;99.90
45409;DHT22;31162;51.076;3.784;2022-10-16T03:28:08;13.80;99.90
45409;DHT22;31162;51.076;3.784;2022-10-16T03:30:33;13.80;99.90
45409;DHT22;31162;51.076;3.784;2022-10-16T03:32:59;13.90;99.90
45409;DHT22;31162;51.076;3.784;2022-10-16T03:35:25;13.80;99.90
45409;DHT22;31162;51.076;3.784;2022-10-16T03:37:50;13.70;99.90
45409;DHT22;31162;51.076;3.784;2022-10-16T03:40:17;13.80;99.90
45409;DHT22;31162;51.076;3.784;2022-10-16T03:42:43;13.80;99.90
45409;DHT22;31162;51.076;3.784;2022-10-16T03:45:10;13.80;99.90
45409;DHT22;31162;51.076;3.784;2022-10-16T03:47:36;13.70;99.90
45409;DHT22;31162;51.076;3.784;2022-10-16T03:50:02;13.70;99.90
45409;DHT22;31162;51.076;3.784;2022-10-16T03:52:28;13.80;99.90
45409;DHT22;31162;51.076;3.784;2022-10-16T03:54:54;13.80;99.90
45409;DHT22;31162;51.076;3.784;2022-10-16T03:57:20;13.80;99.90
45409;DHT22;31162;51.076;3.784;2022-10-16T03:59:46;13.70;99.90
45409;DHT22;31162;51.076;3.784;2022-10-16T04:02:12;13.70;99.90
45409;DHT22;31162;51.076;3.784;2022-10-16T04:04:38;13.70;99.90
45409;DHT22;31162;51.076;3.784;2022-10-16T04:07:03;13.70;99.90
45409;DHT22;31162;51.076;3.784;2022-10-16T04:09:29;13.60;99.90
45409;DHT22;31162;51.076;3.784;2022-10-16T04:11:54;13.70;99.90
45409;DHT22;31162;51.076;3.784;2022-10-16T04:14:20;13.60;99.90
45409;DHT22;31162;51.076;3.784;2022-10-16T04:16:46;13.60;99.90
45409;DHT22;31162;51.076;3.784;2022-10-16T04:19:11;13.60;99.90
45409;DHT22;31162;51.076;3.784;2022-10-16T04:21:37;13.60;99.90
45409;DHT22;31162;51.076;3.784;2022-10-16T04:24:03;13.50;99.90
45409;DHT22;31162;51.076;3.784;2022-10-16T04:26:29;13.50;99.90
45409;DHT22;31162;51.076;3.784;2022-10-16T04:28:55;13.50;99.90
45409;DHT22;31162;51.076;3.784;2022-10-16T04:31:20;13.60;99.90
45409;DHT22;31162;51.076;3.784;2022-10-16T04:33:46;13.50;99.90
45409;DHT22;31162;51.076;3.784;2022-10-16T04:36:12;13.60;99.90
45409;DHT22;31162;51.076;3.784;2022-10-16T04:38:37;13.50;99.90
45409;DHT22;31162;51.076;3.784;2022-10-16T04:41:05;13.50;99.90
45409;DHT22;31162;51.076;3.784;2022-10-16T04:43:31;13.50;99.90
45409;DHT22;31162;51.076;3.784;2022-10-16T04:45:56;13.50;99.90
45409;DHT22;31162;51.076;3.784;2022-10-16T04:48:22;13.40;99.90
45409;DHT22;31162;51.076;3.784;2022-10-16T04:50:48;13.30;99.90
45409;DHT22;31162;51.076;3.784;2022-10-16T04:53:13;13.40;99.90
45409;DHT22;31162;51.076;3.784;2022-10-16T04:55:40;13.40;99.90
45409;DHT22;31162;51.076;3.784;2022-10-16T04:58:06;13.50;99.90
45409;DHT22;31162;51.076;3.784;2022-10-16T05:00:32;13.50;99.90
45409;DHT22;31162;51.076;3.784;2022-10-16T05:02:58;13.50;99.90
45409;DHT22;31162;51.076;3.784;2022-10-16T05:05:26;13.50;99.90
45409;DHT22;31162;51.076;3.784;2022-10-16T05:07:52;13.50;99.90
45409;DHT22;31162;51.076;3.784;2022-10-16T05:10:17;13.60;99.90
45409;DHT22;31162;51.076;3.784;2022-10-16T05:12:43;13.60;99.90
45409;DHT22;31162;51.076;3.784;2022-10-16T05:15:09;13.60;99.90
45409;DHT22;31162;51.076;3.784;2022-10-16T05:17:35;13.60;99.90
45409;DHT22;31162;51.076;3.784;2022-10-16T05:20:00;13.60;99.90
45409;DHT22;31162;51.076;3.784;2022-10-16T05:22:26;13.60;99.90
45409;DHT22;31162;51.076;3.784;2022-10-16T05:24:52;13.60;99.90
45409;DHT22;31162;51.076;3.784;2022-10-16T05:27:17;13.70;99.90
45409;DHT22;31162;51.076;3.784;2022-10-16T05:29:47;13.80;99.90
45409;DHT22;31162;51.076;3.784;2022-10-16T05:32:17;13.90;99.90
45409;DHT22;31162;51.076;3.784;2022-10-16T05:34:44;14.00;99.90
45409;DHT22;31162;51.076;3.784;2022-10-16T05:37:10;14.00;99.90
45409;DHT22;31162;51.076;3.784;2022-10-16T05:39:37;14.10;99.90
45409;DHT22;31162;51.076;3.784;2022-10-16T05:42:03;14.20;99.90
45409;DHT22;31162;51.076;3.784;2022-10-16T05:44:29;14.20;99.90
45409;DHT22;31162;51.076;3.784;2022-10-16T05:46:55;14.10;99.90
45409;DHT22;31162;51.076;3.784;2022-10-16T05:49:20;14.20;99.90
45409;DHT22;31162;51.076;3.784;2022-10-16T05:51:46;14.20;99.90
45409;DHT22;31162;51.076;3.784;2022-10-16T05:54:12;14.40;99.90
45409;DHT22;31162;51.076;3.784;2022-10-16T05:56:37;14.30;99.90
45409;DHT22;31162;51.076;3.784;2022-10-16T05:59:04;14.20;99.90
45409;DHT22;31162;51.076;3.784;2022-10-16T06:01:29;14.10;99.90
45409;DHT22;31162;51.076;3.784;2022-10-16T06:03:57;14.00;99.90
45409;DHT22;31162;51.076;3.784;2022-10-16T06:06:25;13.90;99.90
45409;DHT22;31162;51.076;3.784;2022-10-16T06:08:56;13.90;99.90
45409;DHT22;31162;51.076;3.784;2022-10-16T06:11:28;13.70;99.90
45409;DHT22;31162;51.076;3.784;2022-10-16T06:13:58;13.70;99.90
45409;DHT22;31162;51.076;3.784;2022-10-16T06:16:25;13.70;99.90
45409;DHT22;31162;51.076;3.784;2022-10-16T06:18:52;13.70;99.90
45409;DHT22;31162;51.076;3.784;2022-10-16T06:21:23;13.70;99.90
45409;DHT22;31162;51.076;3.784;2022-10-16T06:23:50;13.50;99.90
45409;DHT22;31162;51.076;3.784;2022-10-16T06:26:18;13.50;99.90
45409;DHT22;31162;51.076;3.784;2022-10-16T06:28:44;13.50;99.90
45409;DHT22;31162;51.076;3.784;2022-10-16T06:31:11;13.50;99.90
45409;DHT22;31162;51.076;3.784;2022-10-16T06:33:38;13.70;99.90
45409;DHT22;31162;51.076;3.784;2022-10-16T06:36:09;13.70;99.90
45409;DHT22;31162;51.076;3.784;2022-10-16T06:38:36;13.70;99.90
45409;DHT22;31162;51.076;3.784;2022-10-16T06:41:03;13.80;99.90
45409;DHT22;31162;51.076;3.784;2022-10-16T06:43:30;13.90;99.90
45409;DHT22;31162;51.076;3.784;2022-10-16T06:46:01;14.00;99.90
45409;DHT22;31162;51.076;3.784;2022-10-16T06:48:28;14.20;99.90
45409;DHT22;31162;51.076;3.784;2022-10-16T06:51:00;14.30;99.90
45409;DHT22;31162;51.076;3.784;2022-10-16T06:53:28;14.40;99.90
45409;DHT22;31162;51.076;3.784;2022-10-16T06:55:54;14.40;99.90
45409;DHT22;31162;51.076;3.784;2022-10-16T06:58:20;14.60;99.90
45409;DHT22;31162;51.076;3.784;2022-10-16T07:00:46;14.70;99.90
45409;DHT22;31162;51.076;3.784;2022-10-16T07:03:12;14.70;99.90
45409;DHT22;31162;51.076;3.784;2022-10-16T07:05:42;14.80;99.90
45409;DHT22;31162;51.076;3.784;2022-10-16T07:08:08;15.00;99.90
45409;DHT22;31162;51.076;3.784;2022-10-16T07:10:34;15.30;99.90
45409;DHT22;31162;51.076;3.784;2022-10-16T07:13:00;16.00;99.90
45409;DHT22;31162;51.076;3.784;2022-10-16T07:15:26;17.50;99.90
45409;DHT22;31162;51.076;3.784;2022-10-16T07:17:52;19.00;99.90
45409;DHT22;31162;51.076;3.784;2022-10-16T07:20:18;20.10;99.90
45409;DHT22;31162;51.076;3.784;2022-10-16T07:22:44;20.80;99.90
45409;DHT22;31162;51.076;3.784;2022-10-16T07:25:10;21.80;99.90
45409;DHT22;31162;51.076;3.784;2022-10-16T07:27:37;22.90;99.90
45409;DHT22;31162;51.076;3.784;2022-10-16T07:30:03;22.80;99.90
45409;DHT22;31162;51.076;3.784;2022-10-16T07:32:29;22.20;99.90
45409;DHT22;31162;51.076;3.784;2022-10-16T07:34:55;21.10;99.90
45409;DHT22;31162;51.076;3.784;2022-10-16T07:37:21;20.00;99.90
45409;DHT22;31162;51.076;3.784;2022-10-16T07:39:47;19.80;99.90
45409;DHT22;31162;51.076;3.784;2022-10-16T07:42:13;20.80;99.90
45409;DHT22;31162;51.076;3.784;2022-10-16T07:44:38;21.60;99.90
45409;DHT22;31162;51.076;3.784;2022-10-16T07:47:05;22.40;99.90
45409;DHT22;31162;51.076;3.784;2022-10-16T07:49:31;23.30;99.90
45409;DHT22;31162;51.076;3.784;2022-10-16T07:51:56;23.70;99.90
45409;DHT22;31162;51.076;3.784;2022-10-16T07:54:22;23.80;99.90
45409;DHT22;31162;51.076;3.784;2022-10-16T07:56:47;24.60;99.90
45409;DHT22;31162;51.076;3.784;2022-10-16T07:59:13;24.50;99.90
45409;DHT22;31162;51.076;3.784;2022-10-16T08:01:39;23.80;99.90
45409;DHT22;31162;51.076;3.784;2022-10-16T08:04:05;24.50;99.90
45409;DHT22;31162;51.076;3.784;2022-10-16T08:06:35;25.10;99.90
45409;DHT22;31162;51.076;3.784;2022-10-16T08:09:01;26.00;99.90
45409;DHT22;31162;51.076;3.784;2022-10-16T08:11:26;26.50;99.90
45409;DHT22;31162;51.076;3.784;2022-10-16T08:13:52;26.50;99.90
45409;DHT22;31162;51.076;3.784;2022-10-16T08:16:18;26.20;99.90
45409;DHT22;31162;51.076;3.784;2022-10-16T08:18:44;26.80;99.90
45409;DHT22;31162;51.076;3.784;2022-10-16T08:21:15;26.80;99.90
45409;DHT22;31162;51.076;3.784;2022-10-16T08:23:41;27.30;99.90
45409;DHT22;31162;51.076;3.784;2022-10-16T08:26:08;27.90;99.90
45409;DHT22;31162;51.076;3.784;2022-10-16T08:28:34;28.70;99.60
45409;DHT22;31162;51.076;3.784;2022-10-16T08:31:14;28.60;99.20
45409;DHT22;31162;51.076;3.784;2022-10-16T08:33:43;28.30;98.70
45409;DHT22;31162;51.076;3.784;2022-10-16T08:36:10;28.40;98.40
45409;DHT22;31162;51.076;3.784;2022-10-16T08:38:36;28.50;98.50
45409;DHT22;31162;51.076;3.784;2022-10-16T08:44:08;28.00;98.30
45409;DHT22;31162;51.076;3.784;2022-10-16T08:49:11;26.10;99.90
45409;DHT22;31162;51.076;3.784;2022-10-16T08:51:38;25.60;99.90
45409;DHT22;31162;51.076;3.784;2022-10-16T08:54:16;25.00;99.90
45409;DHT22;31162;51.076;3.784;2022-10-16T08:56:44;24.20;99.90
45409;DHT22;31162;51.076;3.784;2022-10-16T08:59:10;23.60;99.90
45409;DHT22;31162;51.076;3.784;2022-10-16T09:01:40;23.50;99.90
45409;DHT22;31162;51.076;3.784;2022-10-16T09:06:52;22.90;99.90
45409;DHT22;31162;51.076;3.784;2022-10-16T09:09:52;23.40;99.90
45409;DHT22;31162;51.076;3.784;2022-10-16T09:15:31;26.10;99.90
45409;DHT22;31162;51.076;3.784;2022-10-16T09:21:13;28.10;99.40
45409;DHT22;31162;51.076;3.784;2022-10-16T09:23:40;28.80;98.30
45409;DHT22;31162;51.076;3.784;2022-10-16T09:26:10;29.20;97.70
45409;DHT22;31162;51.076;3.784;2022-10-16T09:28:36;29.60;97.10
45409;DHT22;31162;51.076;3.784;2022-10-16T09:31:02;29.60;96.10
45409;DHT22;31162;51.076;3.784;2022-10-16T09:33:36;29.60;96.40
45409;DHT22;31162;51.076;3.784;2022-10-16T09:36:05;29.70;96.00
45409;DHT22;31162;51.076;3.784;2022-10-16T09:38:35;29.60;95.80
45409;DHT22;31162;51.076;3.784;2022-10-16T09:41:23;29.00;96.30
45409;DHT22;31162;51.076;3.784;2022-10-16T09:43:59;29.60;95.60
45409;DHT22;31162;51.076;3.784;2022-10-16T09:46:30;30.30;95.00
45409;DHT22;31162;51.076;3.784;2022-10-16T09:49:05;29.90;95.00
45409;DHT22;31162;51.076;3.784;2022-10-16T09:51:36;29.50;94.90
45409;DHT22;31162;51.076;3.784;2022-10-16T09:54:16;29.10;95.30
45409;DHT22;31162;51.076;3.784;2022-10-16T09:56:42;29.20;95.00
45409;DHT22;31162;51.076;3.784;2022-10-16T09:59:21;29.00;95.40
45409;DHT22;31162;51.076;3.784;2022-10-16T10:01:53;29.20;95.40
45409;DHT22;31162;51.076;3.784;2022-10-16T10:04:22;29.70;94.80
45409;DHT22;31162;51.076;3.784;2022-10-16T10:06:53;29.00;94.90
45409;DHT22;31162;51.076;3.784;2022-10-16T10:09:25;28.00;95.40
45409;DHT22;31162;51.076;3.784;2022-10-16T10:11:59;27.10;96.70
45409;DHT22;31162;51.076;3.784;2022-10-16T10:17:13;25.80;97.40
45409;DHT22;31162;51.076;3.784;2022-10-16T10:19:41;25.30;98.30
45409;DHT22;31162;51.076;3.784;2022-10-16T10:35:54;26.00;98.90
45409;DHT22;31162;51.076;3.784;2022-10-16T10:40:57;26.90;97.40
45409;DHT22;31162;51.076;3.784;2022-10-16T10:43:39;26.20;97.80
45409;DHT22;31162;51.076;3.784;2022-10-16T10:46:14;26.10;98.30
45409;DHT22;31162;51.076;3.784;2022-10-16T10:48:59;26.70;97.80
45409;DHT22;31162;51.076;3.784;2022-10-16T10:51:33;27.30;97.50
45409;DHT22;31162;51.076;3.784;2022-10-16T10:54:33;28.20;96.50
45409;DHT22;31162;51.076;3.784;2022-10-16T10:57:50;28.20;96.60
45409;DHT22;31162;51.076;3.784;2022-10-16T11:00:06;29.20;95.70
45409;DHT22;31162;51.076;3.784;2022-10-16T11:05:31;29.70;94.80
45409;DHT22;31162;51.076;3.784;2022-10-16T11:08:16;29.30;94.30
45409;DHT22;31162;51.076;3.784;2022-10-16T11:14:03;29.30;94.80
45409;DHT22;31162;51.076;3.784;2022-10-16T11:16:42;29.90;94.40
45409;DHT22;31162;51.076;3.784;2022-10-16T11:24:55;27.30;94.90
45409;DHT22;31162;51.076;3.784;2022-10-16T11:27:39;26.10;95.70
45409;DHT22;31162;51.076;3.784;2022-10-16T11:30:30;25.70;96.20
45409;DHT22;31162;51.076;3.784;2022-10-16T11:38:32;25.00;97.30
45409;DHT22;31162;51.076;3.784;2022-10-16T11:41:34;24.70;96.90
45409;DHT22;31162;51.076;3.784;2022-10-16T11:47:26;25.80;96.70
45409;DHT22;31162;51.076;3.784;2022-10-16T11:50:00;26.50;96.00
45409;DHT22;31162;51.076;3.784;2022-10-16T11:52:44;27.00;95.30
45409;DHT22;31162;51.076;3.784;2022-10-16T11:55:20;27.20;95.60
45409;DHT22;31162;51.076;3.784;2022-10-16T11:57:51;27.60;95.00
45409;DHT22;31162;51.076;3.784;2022-10-16T12:00:20;27.10;95.40
45409;DHT22;31162;51.076;3.784;2022-10-16T12:05:23;25.70;95.50
45409;DHT22;31162;51.076;3.784;2022-10-16T12:08:10;24.90;96.70
45409;DHT22;31162;51.076;3.784;2022-10-16T12:10:38;24.00;97.50
45409;DHT22;31162;51.076;3.784;2022-10-16T12:13:26;23.60;98.20
45409;DHT22;31162;51.076;3.784;2022-10-16T12:15:50;23.30;99.20
45409;DHT22;31162;51.076;3.784;2022-10-16T12:18:23;23.30;99.00
45409;DHT22;31162;51.076;3.784;2022-10-16T12:20:59;23.30;99.40
45409;DHT22;31162;51.076;3.784;2022-10-16T12:23:29;23.00;99.00
45409;DHT22;31162;51.076;3.784;2022-10-16T12:25:58;22.90;99.00
45409;DHT22;31162;51.076;3.784;2022-10-16T12:28:29;22.70;99.60
45409;DHT22;31162;51.076;3.784;2022-10-16T12:30:58;22.40;99.90
45409;DHT22;31162;51.076;3.784;2022-10-16T12:33:26;22.30;99.90
45409;DHT22;31162;51.076;3.784;2022-10-16T12:35:53;22.50;99.90
45409;DHT22;31162;51.076;3.784;2022-10-16T12:38:32;22.80;99.90
45409;DHT22;31162;51.076;3.784;2022-10-16T12:41:03;22.90;99.90
45409;DHT22;31162;51.076;3.784;2022-10-16T12:43:36;22.90;99.90
45409;DHT22;31162;51.076;3.784;2022-10-16T12:48:36;23.00;99.90
45409;DHT22;31162;51.076;3.784;2022-10-16T12:53:59;23.00;99.30
45409;DHT22;31162;51.076;3.784;2022-10-16T12:56:44;22.90;99.90
45409;DHT22;31162;51.076;3.784;2022-10-16T13:02:54;22.50;99.90
45409;DHT22;31162;51.076;3.784;2022-10-16T13:08:29;22.40;99.90
45409;DHT22;31162;51.076;3.784;2022-10-16T13:12:01;22.50;99.90
45409;DHT22;31162;51.076;3.784;2022-10-16T13:30:02;22.10;99.90
45409;DHT22;31162;51.076;3.784;2022-10-16T13:32:34;21.90;99.90
45409;DHT22;31162;51.076;3.784;2022-10-16T13:35:00;22.20;99.90
45409;DHT22;31162;51.076;3.784;2022-10-16T13:37:26;22.20;99.90
45409;DHT22;31162;51.076;3.784;2022-10-16T13:40:09;22.30;99.90
45409;DHT22;31162;51.076;3.784;2022-10-16T13:42:38;22.50;99.90
45409;DHT22;31162;51.076;3.784;2022-10-16T13:45:04;22.70;99.90
45409;DHT22;31162;51.076;3.784;2022-10-16T13:47:30;22.80;99.90
45409;DHT22;31162;51.076;3.784;2022-10-16T13:52:28;22.60;99.90
45409;DHT22;31162;51.076;3.784;2022-10-16T13:54:54;22.50;99.90
45409;DHT22;31162;51.076;3.784;2022-10-16T13:57:23;22.10;99.90
45409;DHT22;31162;51.076;3.784;2022-10-16T13:59:49;22.00;99.90
45409;DHT22;31162;51.076;3.784;2022-10-16T14:04:46;21.80;99.90
45409;DHT22;31162;51.076;3.784;2022-10-16T14:07:23;21.60;99.90
45409;DHT22;31162;51.076;3.784;2022-10-16T14:09:50;21.50;99.90
45409;DHT22;31162;51.076;3.784;2022-10-16T14:12:16;21.40;99.90
45409;DHT22;31162;51.076;3.784;2022-10-16T14:14:47;21.50;99.90
45409;DHT22;31162;51.076;3.784;2022-10-16T14:17:15;21.60;99.90
45409;DHT22;31162;51.076;3.784;2022-10-16T14:19:46;21.50;99.90
45409;DHT22;31162;51.076;3.784;2022-10-16T14:24:55;21.20;99.90
45409;DHT22;31162;51.076;3.784;2022-10-16T14:27:30;21.30;99.90
45409;DHT22;31162;51.076;3.784;2022-10-16T14:30:18;21.20;99.90
45409;DHT22;31162;51.076;3.784;2022-10-16T14:33:02;21.30;99.90
45409;DHT22;31162;51.076;3.784;2022-10-16T14:35:39;21.30;99.90
45409;DHT22;31162;51.076;3.784;2022-10-16T14:38:06;21.30;99.90
45409;DHT22;31162;51.076;3.784;2022-10-16T14:40:47;21.20;99.90
45409;DHT22;31162;51.076;3.784;2022-10-16T14:43:31;21.20;99.90
45409;DHT22;31162;51.076;3.784;2022-10-16T14:45:58;21.00;99.90
45409;DHT22;31162;51.076;3.784;2022-10-16T14:48:24;20.90;99.90
45409;DHT22;31162;51.076;3.784;2022-10-16T14:50:50;20.90;99.90
45409;DHT22;31162;51.076;3.784;2022-10-16T14:53:16;20.80;99.90
45409;DHT22;31162;51.076;3.784;2022-10-16T14:55:42;20.50;99.90
45409;DHT22;31162;51.076;3.784;2022-10-16T14:58:20;20.60;99.90
45409;DHT22;31162;51.076;3.784;2022-10-16T15:00:46;20.40;99.90
45409;DHT22;31162;51.076;3.784;2022-10-16T15:03:12;20.40;99.90
45409;DHT22;31162;51.076;3.784;2022-10-16T15:05:38;20.30;99.90
45409;DHT22;31162;51.076;3.784;2022-10-16T15:08:04;20.50;99.90
45409;DHT22;31162;51.076;3.784;2022-10-16T15:10:31;20.50;99.90
45409;DHT22;31162;51.076;3.784;2022-10-16T15:12:58;20.40;99.90
45409;DHT22;31162;51.076;3.784;2022-10-16T15:15:38;20.50;99.90
45409;DHT22;31162;51.076;3.784;2022-10-16T15:18:07;20.50;99.90
45409;DHT22;31162;51.076;3.784;2022-10-16T15:20:35;20.40;99.90
45409;DHT22;31162;51.076;3.784;2022-10-16T15:23:06;20.30;99.90
45409;DHT22;31162;51.076;3.784;2022-10-16T15:25:42;20.30;99.90
45409;DHT22;31162;51.076;3.784;2022-10-16T15:28:09;20.30;99.90
45409;DHT22;31162;51.076;3.784;2022-10-16T15:30:35;20.40;99.90
45409;DHT22;31162;51.076;3.784;2022-10-16T15:33:02;20.40;99.90
45409;DHT22;31162;51.076;3.784;2022-10-16T15:35:28;20.40;99.90
45409;DHT22;31162;51.076;3.784;2022-10-16T15:37:53;20.30;99.90
45409;DHT22;31162;51.076;3.784;2022-10-16T15:40:20;20.20;99.90
45409;DHT22;31162;51.076;3.784;2022-10-16T15:42:46;20.00;99.90
45409;DHT22;31162;51.076;3.784;2022-10-16T15:45:12;20.00;99.90
45409;DHT22;31162;51.076;3.784;2022-10-16T15:47:38;20.00;99.90
45409;DHT22;31162;51.076;3.784;2022-10-16T15:50:06;19.90;99.90
45409;DHT22;31162;51.076;3.784;2022-10-16T15:52:31;19.90;99.90
45409;DHT22;31162;51.076;3.784;2022-10-16T15:54:58;19.80;99.90
45409;DHT22;31162;51.076;3.784;2022-10-16T15:57:24;19.70;99.90
45409;DHT22;31162;51.076;3.784;2022-10-16T15:59:50;19.60;99.90
45409;DHT22;31162;51.076;3.784;2022-10-16T16:02:16;19.60;99.90
45409;DHT22;31162;51.076;3.784;2022-10-16T16:04:42;19.60;99.90
45409;DHT22;31162;51.076;3.784;2022-10-16T16:07:07;19.30;99.90
45409;DHT22;31162;51.076;3.784;2022-10-16T16:09:33;19.20;99.90
45409;DHT22;31162;51.076;3.784;2022-10-16T16:11:59;19.10;99.90
45409;DHT22;31162;51.076;3.784;2022-10-16T16:14:27;19.10;99.90
45409;DHT22;31162;51.076;3.784;2022-10-16T16:16:56;19.10;99.90
45409;DHT22;31162;51.076;3.784;2022-10-16T16:19:21;19.10;99.90
45409;DHT22;31162;51.076;3.784;2022-10-16T16:21:48;19.00;99.90
45409;DHT22;31162;51.076;3.784;2022-10-16T16:24:13;19.00;99.90
45409;DHT22;31162;51.076;3.784;2022-10-16T16:26:39;18.90;99.90
45409;DHT22;31162;51.076;3.784;2022-10-16T16:29:11;18.90;99.90
45409;DHT22;31162;51.076;3.784;2022-10-16T16:31:37;18.90;99.90
45409;DHT22;31162;51.076;3.784;2022-10-16T16:34:03;18.90;99.90
45409;DHT22;31162;51.076;3.784;2022-10-16T16:36:29;18.90;99.90
45409;DHT22;31162;51.076;3.784;2022-10-16T16:38:54;18.90;99.90
45409;DHT22;31162;51.076;3.784;2022-10-16T16:41:23;18.80;99.90
45409;DHT22;31162;51.076;3.784;2022-10-16T16:43:49;18.90;99.90
45409;DHT22;31162;51.076;3.784;2022-10-16T16:46:17;18.90;99.90
45409;DHT22;31162;51.076;3.784;2022-10-16T16:48:43;19.00;99.90
45409;DHT22;31162;51.076;3.784;2022-10-16T16:51:15;18.90;99.90
45409;DHT22;31162;51.076;3.784;2022-10-16T16:53:46;18.70;99.90
45409;DHT22;31162;51.076;3.784;2022-10-16T16:56:13;18.70;99.90
45409;DHT22;31162;51.076;3.784;2022-10-16T16:58:39;18.70;99.90
45409;DHT22;31162;51.076;3.784;2022-10-16T17:01:05;18.70;99.90
45409;DHT22;31162;51.076;3.784;2022-10-16T17:03:33;18.60;99.90
45409;DHT22;31162;51.076;3.784;2022-10-16T17:06:07;18.50;99.90
45409;DHT22;31162;51.076;3.784;2022-10-16T17:08:37;18.40;99.90
45409;DHT22;31162;51.076;3.784;2022-10-16T17:11:03;18.50;99.90
45409;DHT22;31162;51.076;3.784;2022-10-16T17:13:31;18.50;99.90
45409;DHT22;31162;51.076;3.784;2022-10-16T17:16:00;18.60;99.90
45409;DHT22;31162;51.076;3.784;2022-10-16T17:18:25;18.40;99.90
45409;DHT22;31162;51.076;3.784;2022-10-16T17:20:51;18.30;99.90
45409;DHT22;31162;51.076;3.784;2022-10-16T17:23:18;18.40;99.90
45409;DHT22;31162;51.076;3.784;2022-10-16T17:25:45;18.40;99.90
45409;DHT22;31162;51.076;3.784;2022-10-16T17:28:11;18.50;99.90
45409;DHT22;31162;51.076;3.784;2022-10-16T17:30:38;18.30;99.90
45409;DHT22;31162;51.076;3.784;2022-10-16T17:33:05;18.10;99.90